Latest Weather Observations for Milingimbi

IDD60801

Issued at 11:11 pm CST Sunday 17 February 2019 (issued every 10 minutes, with the page automatically refreshed every 10 minutes)

About weather observations | Map of weather stations | Latest weather observations for NT | Other Formats
Station Details ID: 014404 Name: MILINGIMBI AIRPORT Lat: -12.09 Lon: 134.89 Height: 15.0 m
Data from the previous 72 hours. | See also: Recent months at Milingimbi
Date/Time
CST
Temp
°C
App
Temp
°C
Dew
Point
°C
Rel
Hum
%
Delta-T
°C
Wind Press
QNH
hPa
Press
MSL
hPa
Rain since
9am
mm
Dir  Spd
km/h
Gust
km/h
Spd
kts
Gust
kts
17/11:00pm 27.8 32.8 23.8 79 2.8 NW 4 7 2 4 1011.0 - 0.0
17/10:30pm 28.2 32.7 23.6 76 3.2 WNW 6 7 3 4 1010.8 - 0.0
17/10:00pm 28.3 32.4 23.2 74 3.5 NW 7 9 4 5 1010.5 - 0.0
17/09:30pm 28.4 32.4 23.1 73 3.6 NNW 7 9 4 5 1010.0 - 0.0
17/09:00pm 28.6 32.3 23.3 73 3.6 NW 9 13 5 7 1009.8 1009.7 0.0
17/08:30pm 28.8 33.0 23.5 73 3.6 NW 7 9 4 5 1009.7 - 0.0
17/08:00pm 28.9 33.1 23.1 71 4.0 NNW 6 9 3 5 1009.3 - 0.0
17/07:30pm 29.1 33.3 23.1 70 4.1 NNW 6 9 3 5 1009.0 - 0.0
17/07:00pm 29.4 32.7 22.6 67 4.6 NNW 9 13 5 7 1008.5 - 0.0
17/06:30pm 30.0 33.1 22.9 65 4.9 NNW 11 17 6 9 1008.1 - 0.0
17/06:00pm 30.8 33.9 22.9 62 5.4 N 11 19 6 10 1007.8 1007.7 0.0
17/05:30pm 31.5 34.7 23.1 61 5.8 NNW 11 20 6 11 1007.6 - 0.0
17/05:00pm 31.5 34.2 22.8 60 6.0 NNW 13 20 7 11 1007.6 - 0.0
17/04:30pm 31.7 34.3 22.7 59 6.2 N 13 22 7 12 1007.9 - 0.0
17/04:00pm 32.6 35.2 23.3 58 6.4 NNW 15 24 8 13 1008.2 - 0.0
17/03:30pm 32.0 34.1 22.4 57 6.6 NNW 15 22 8 12 1008.6 - 0.0
17/03:00pm 32.5 35.2 22.9 57 6.6 N 13 22 7 12 1009.0 1008.9 0.0
17/02:30pm 33.4 36.6 23.1 54 7.1 N 11 20 6 11 1009.5 - 0.0
17/02:00pm 33.0 35.3 22.1 52 7.4 N 13 22 7 12 1009.9 - 0.0
17/01:30pm 32.5 34.8 22.0 54 7.1 N 13 20 7 11 1010.2 - 0.0
17/01:00pm 33.5 36.8 23.8 57 6.8 N 13 24 7 13 1010.7 - 0.0
17/12:30pm 32.9 35.7 23.0 56 6.8 NNE 13 20 7 11 1011.2 - 0.0
17/12:00pm 33.0 36.5 23.6 57 6.5 NNW 11 22 6 12 1011.7 1011.6 0.0
17/11:30am 32.3 35.7 23.3 59 6.2 N 11 20 6 11 1012.1 - 0.0
17/11:00am 32.2 35.1 23.2 59 6.2 N 13 19 7 10 1012.4 - 0.0
17/10:30am 32.0 35.4 22.7 58 6.4 NNW 9 19 5 10 1012.6 - 0.0
17/10:00am 30.8 33.9 22.9 62 5.4 WNW 11 19 6 10 1012.7 - 0.0
17/09:30am 30.7 34.2 22.8 62 5.4 NNW 9 17 5 9 1012.5 - 0.0
17/09:00am 29.6 33.1 22.8 67 4.6 NW 9 15 5 8 1012.6 1012.5 0.0
17/08:30am 30.7 34.5 23.4 65 5.0 NNW 9 15 5 8 1012.1 - 0.0
17/08:00am 29.0 33.3 23.7 73 3.7 NNW 7 13 4 7 1011.6 - 0.0
17/07:30am 28.0 32.2 23.4 76 3.2 NNW 7 13 4 7 1010.9 - 0.0
17/07:00am 27.2 31.5 23.7 81 2.4 NW 7 11 4 6 1010.6 - 0.0
17/06:30am 26.8 31.0 23.5 82 2.3 NNW 7 11 4 6 1010.3 - 0.0
17/06:00am 26.8 31.1 23.7 83 2.1 NW 7 9 4 5 1010.1 1010.0 0.0
17/05:30am 26.6 31.1 23.9 85 1.9 NW 7 9 4 5 1009.8 - 0.0
17/05:00am 26.4 32.4 24.2 88 1.5 CALM 0 0 0 0 1009.5 - 0.0
17/04:30am 26.6 32.7 24.4 88 1.5 CALM 0 0 0 0 1009.5 - 0.0
17/04:00am 27.0 32.8 24.6 87 1.7 WNW 2 7 1 4 1009.6 - 0.0
17/03:30am 26.9 31.9 24.5 87 1.7 NNW 6 9 3 5 1009.4 - 0.0
17/03:00am 26.9 33.0 24.5 87 1.7 CALM 0 0 0 0 1009.8 1009.7 0.0
17/02:30am 27.2 33.4 24.6 86 1.8 CALM 0 6 0 3 1010.0 - 0.0
17/02:00am 27.2 33.3 24.5 85 1.9 CALM 0 0 0 0 1010.0 - 0.0
17/01:30am 27.6 32.9 24.4 83 2.2 W 4 7 2 4 1010.3 - 0.0
17/01:00am 27.9 32.9 24.5 82 2.4 WNW 6 9 3 5 1010.9 - 0.0
17/12:30am 28.1 33.0 24.3 80 2.6 NNW 6 9 3 5 1011.1 - 0.0
17/12:00am 28.1 32.9 24.1 79 2.8 N 6 9 3 5 1011.4 1011.3 0.0
 
Date/Time
CST
Temp
°C
App
Temp
°C
Dew
Point
°C
Rel
Hum
%
Delta-T
°C
Wind Press
QNH
hPa
Press
MSL
hPa
Rain since
9am
mm
Dir  Spd
km/h
Gust
km/h
Spd
kts
Gust
kts
16/11:30pm 28.4 33.1 24.0 77 3.0 N 6 11 3 6 1011.8 - 0.0
16/11:00pm 28.4 33.2 24.2 78 2.9 N 6 9 3 5 1011.9 - 0.0
16/10:30pm 28.7 34.0 24.3 77 3.1 N 4 9 2 5 1012.0 - 0.0
16/10:00pm 29.0 33.7 24.3 76 3.3 N 7 11 4 6 1011.5 - 0.0
16/09:30pm 29.1 34.2 24.9 78 2.9 N 7 11 4 6 1011.0 - 0.0
16/09:00pm 29.2 33.9 25.0 78 2.9 N 9 15 5 8 1010.8 1010.7 0.0
16/08:30pm 29.3 34.5 25.1 78 3.0 N 7 15 4 8 1010.3 - 0.0
16/08:00pm 29.3 33.9 24.8 77 3.1 N 9 13 5 7 1010.2 - 0.0
16/07:30pm 29.6 34.2 24.7 75 3.4 N 9 20 5 11 1009.7 - 0.0
16/07:00pm 29.7 33.6 24.3 73 3.8 N 11 17 6 9 1009.2 - 0.0
16/06:30pm 30.2 34.7 24.6 72 3.9 N 9 19 5 10 1008.7 - 0.0
16/06:00pm 31.0 35.4 24.4 68 4.6 N 9 17 5 9 1008.3 1008.2 0.0
16/05:30pm 31.0 34.7 23.9 66 4.9 N 11 19 6 10 1008.1 - 0.0
16/05:00pm 31.5 35.2 23.9 64 5.3 N 11 19 6 10 1008.1 - 0.0
16/04:30pm 31.9 35.2 23.2 60 6.0 N 11 20 6 11 1008.2 - 0.0
16/04:00pm 32.1 35.1 23.3 59 6.1 N 13 19 7 10 1008.3 - 0.0
16/03:30pm 32.9 36.5 24.4 61 6.0 N 13 22 7 12 1008.7 - 0.0
16/03:00pm 33.0 36.1 23.6 57 6.5 N 13 20 7 11 1009.2 1009.1 0.0
16/02:30pm 32.4 34.9 23.1 58 6.4 N 15 26 8 14 1009.7 - 0.0
16/02:00pm 33.6 37.3 24.5 59 6.4 N 13 19 7 10 1010.0 - 0.0
16/01:30pm 34.2 38.4 24.7 57 6.7 N 11 19 6 10 1010.4 - 0.0
16/01:00pm 33.6 37.1 24.2 58 6.6 N 13 19 7 10 1010.9 - 0.0
16/12:30pm 33.0 36.5 24.2 60 6.2 NE 13 20 7 11 1011.4 - 0.0
16/12:00pm 34.2 37.8 22.3 50 8.2 W 7 11 4 6 1011.8 1011.7 0.0
16/11:30am 34.4 39.3 24.3 55 7.1 SW 6 13 3 7 1012.1 - 0.0
16/11:00am 33.7 38.0 23.7 56 7.0 SW 7 13 4 7 1012.5 - 0.0
16/10:30am 32.7 36.8 23.9 60 6.1 SW 9 20 5 11 1012.6 - 0.0
16/10:00am 31.8 35.9 23.9 63 5.5 SW 9 17 5 9 1012.9 - 0.0
16/09:30am 31.2 35.6 25.1 70 4.3 SW 11 13 6 7 1013.2 - 0.0
16/09:00am 29.9 34.5 24.8 74 3.6 WSW 9 11 5 6 1013.1 1013.0 0.0
16/08:30am 29.1 34.2 24.9 78 2.9 SW 7 13 4 7 1012.8 - 0.0
16/08:00am 28.1 33.9 25.7 87 1.7 SW 6 9 3 5 1012.6 - 0.0
16/07:30am 27.3 34.3 25.9 92 1.0 CALM 0 6 0 3 1012.2 - 0.0
16/07:00am 26.5 33.0 25.1 92 1.0 CALM 0 0 0 0 1011.7 - 0.0
16/06:30am 26.3 32.6 24.7 91 1.1 CALM 0 0 0 0 1011.5 - 0.0
16/06:00am 26.3 32.6 24.7 91 1.1 CALM 0 0 0 0 1011.4 1011.3 0.0
16/05:30am 26.5 32.9 24.9 91 1.1 CALM 0 0 0 0 1011.3 - 0.0
16/05:00am 26.6 33.1 25.0 91 1.1 CALM 0 0 0 0 1011.1 - 0.0
16/04:30am 26.6 32.9 24.8 90 1.3 CALM 0 0 0 0 1010.8 - 0.0
16/04:00am 26.7 32.1 25.1 91 1.1 NNW 6 9 3 5 1010.8 - 0.0
16/03:30am 26.5 31.8 24.9 91 1.1 NNW 6 9 3 5 1010.8 - 0.0
16/03:00am 26.5 32.4 24.7 90 1.3 WNW 2 6 1 3 1011.1 1011.0 0.0
16/02:30am 26.6 31.8 24.8 90 1.3 NW 6 9 3 5 1011.4 - 0.0
16/02:00am 26.9 33.4 25.1 90 1.3 CALM 0 0 0 0 1011.6 - 0.0
16/01:30am 27.2 33.0 25.2 89 1.4 SW 4 9 2 5 1011.8 - 0.0
16/01:00am 27.4 33.2 25.2 88 1.5 WNW 4 6 2 3 1011.9 - 0.0
16/12:30am 27.4 32.8 25.2 88 1.5 NNW 6 9 3 5 1012.1 - 0.0
16/12:00am 27.6 32.9 25.0 86 1.8 NW 6 9 3 5 1012.4 1012.3 0.0
 
Date/Time
CST
Temp
°C
App
Temp
°C
Dew
Point
°C
Rel
Hum
%
Delta-T
°C
Wind Press
QNH
hPa
Press
MSL
hPa
Rain since
9am
mm
Dir  Spd
km/h
Gust
km/h
Spd
kts
Gust
kts
15/11:30pm 28.0 33.4 25.2 85 2.0 W 6 7 3 4 1012.9 - 0.0
15/11:00pm 28.2 33.5 25.2 84 2.1 WSW 7 9 4 5 1013.1 - 0.0
15/10:30pm 28.4 33.8 25.2 83 2.2 W 6 7 3 4 1012.9 - 0.0
15/10:00pm 28.5 34.6 25.1 82 2.4 WSW 2 7 1 4 1012.6 - 0.0
15/09:30pm 28.6 34.8 25.2 82 2.4 NW 2 7 1 4 1012.4 - 0.0
15/09:00pm 28.8 34.2 25.4 82 2.4 WNW 7 11 4 6 1012.3 1012.2 0.0
15/08:30pm 28.7 33.5 25.1 81 2.5 NW 9 13 5 7 1011.6 - 0.0
15/08:00pm 29.0 33.9 25.2 80 2.7 NW 9 15 5 8 1011.3 - 0.0
15/07:30pm 29.2 33.7 25.2 79 2.8 NW 11 19 6 10 1010.8 - 0.0
15/07:00pm 29.4 34.1 24.9 77 3.2 NNW 9 15 5 8 1010.4 - 0.0
15/06:30pm 29.8 34.1 24.9 75 3.4 NW 11 17 6 9 1009.9 - 0.0
15/06:00pm 30.2 34.4 24.8 73 3.8 NW 11 19 6 10 1009.4 1009.3 0.0
15/05:30pm 30.7 34.9 24.8 71 4.1 NNW 11 20 6 11 1009.0 - 0.0
15/05:00pm 31.4 35.3 24.8 68 4.6 NNW 13 24 7 13 1009.2 - 0.0
15/04:30pm 32.1 36.1 24.4 63 5.4 NNW 11 20 6 11 1009.3 - 0.0
15/04:00pm 32.6 36.3 24.6 62 5.6 NNW 13 24 7 13 1009.2 - 0.0
15/03:30pm 32.2 35.5 24.5 64 5.4 N 15 24 8 13 1009.6 - 0.0
15/03:00pm 32.6 36.7 25.2 65 5.2 NNW 13 20 7 11 1010.1 1010.0 0.0
15/02:30pm 32.3 34.9 24.6 64 5.4 N 19 28 10 15 1010.6 - 0.0
15/02:00pm 32.3 36.0 25.1 65 5.1 N 15 28 8 15 1010.8 - 0.0
15/01:30pm 33.0 37.6 25.3 64 5.5 NNW 11 17 6 9 1011.1 - 0.0
15/01:00pm 33.1 36.9 25.9 66 5.1 N 17 26 9 14 1011.2 - 0.0
15/12:30pm 33.1 36.5 23.4 56 6.7 NNW 11 17 6 9 1011.7 - 0.0
15/12:00pm 32.6 36.2 24.4 62 5.8 NW 13 28 7 15 1012.1 1012.0 0.0
15/11:30am 32.3 36.4 24.6 64 5.4 NW 11 20 6 11 1012.2 - 0.0
15/11:00am 32.1 36.2 25.2 67 4.9 NNW 13 22 7 12 1012.3 - 0.0
15/10:30am 31.9 37.0 26.2 72 4.1 N 11 20 6 11 1012.3 - 0.0
15/10:00am 31.0 35.4 25.1 71 4.2 NNW 11 20 6 11 1012.4 - 0.0
15/09:30am 31.0 35.0 25.1 71 4.2 NNW 13 24 7 13 1012.2 - 0.0
15/09:00am 31.1 35.9 25.7 73 3.8 NW 11 17 6 9 1012.1 1012.0 13.2
15/08:30am 29.7 35.3 25.7 79 2.8 NNW 7 11 4 6 1012.0 - 13.2
15/08:00am 28.4 34.5 25.6 85 2.0 WNW 4 9 2 5 1011.7 - 13.2
15/07:30am 26.2 32.0 23.9 87 1.6 CALM 0 0 0 0 1011.5 - 13.2
15/07:00am 25.0 30.5 23.4 91 1.1 CALM 0 0 0 0 1010.9 - 13.2
15/06:30am 24.7 30.0 23.1 91 1.1 CALM 0 0 0 0 1010.5 - 13.2
15/06:00am 24.7 30.0 23.1 91 1.1 CALM 0 0 0 0 1010.4 1010.3 13.2
15/05:30am 24.5 29.7 22.9 91 1.1 CALM 0 0 0 0 1010.2 - 13.2
15/05:00am 24.6 29.9 23.0 91 1.1 CALM 0 0 0 0 1010.0 - 13.2
15/04:30am 24.0 28.7 21.9 88 1.4 CALM 0 0 0 0 1009.9 - 13.2
15/04:00am 24.4 29.6 22.8 91 1.1 CALM 0 0 0 0 1009.9 - 13.2
15/03:30am 24.6 29.9 23.0 91 1.1 CALM 0 0 0 0 1009.8 - 13.2
15/03:00am 24.6 29.8 22.8 90 1.2 CALM 0 0 0 0 1010.1 1010.0 13.0
15/02:30am 24.7 29.9 22.9 90 1.2 CALM 0 6 0 3 1010.3 - 13.0
15/02:00am 24.7 29.9 22.8 89 1.3 CALM 0 4 0 2 1010.8 - 13.0
15/01:30am 24.6 29.2 22.5 88 1.4 W 2 6 1 3 1011.0 - 13.0
15/01:00am 24.7 28.4 22.6 88 1.4 W 7 9 4 5 1011.3 - 13.0
15/12:30am 24.7 29.8 22.6 88 1.4 CALM 0 6 0 3 1011.6 - 13.0
15/12:00am 24.8 29.8 22.5 87 1.5 CALM 0 0 0 0 1011.8 1011.7 13.0
 
Date/Time
CST
Temp
°C
App
Temp
°C
Dew
Point
°C
Rel
Hum
%
Delta-T
°C
Wind Press
QNH
hPa
Press
MSL
hPa
Rain since
9am
mm
Dir  Spd
km/h
Gust
km/h
Spd
kts
Gust
kts
14/11:30pm 24.6 28.5 22.5 88 1.4 SSW 6 7 3 4 1012.0 - 13.0

Other Formats:

Comma delimited format used in spreadsheet applications
http://www.bom.gov.au/fwo/IDD60801/IDD60801.94140.axf

JavaScript Object Notation format (JSON) in row-major order
http://www.bom.gov.au/fwo/IDD60801/IDD60801.94140.json